This is the latest recevied weather packets stored in our database for station/object W7DG. If no packets are shown the sender has not sent any weather packets the latest 10 day(s).
| Time | Temp. | Humidity | Pressure | Rain* | Wind** | Luminosity | Snow |
|---|---|---|---|---|---|---|---|
| 1777618989 | 12.22° C | 81% | 1016.8 hPa | 0 mm | - | - | - |
| 1777618451 | 12.22° C | 81% | 1016.9 hPa | 0 mm | - | - | - |
| 1777618089 | 12.78° C | 81% | 1016.9 hPa | 0 mm | - | - | - |
| 1777617550 | 12.78° C | 80% | 1017 hPa | 0 mm | - | - | - |
| 1777617189 | 12.78° C | 79% | 1017 hPa | 0 mm | - | - | - |
| 1777616651 | 13.33° C | 79% | 1017 hPa | 0 mm | - | - | - |
| 1777616289 | 13.33° C | 79% | 1017 hPa | 0 mm | - | - | - |
| 1777615751 | 13.33° C | 78% | 1017 hPa | 0 mm | - | - | - |
| 1777615389 | 13.89° C | 77% | 1017 hPa | 0 mm | - | - | - |
| 1777614851 | 13.89° C | 76% | 1016.9 hPa | 0 mm | - | - | - |
| 1777614489 | 13.89° C | 75% | 1017 hPa | 0 mm | - | - | - |
| 1777613950 | 14.44° C | 73% | 1016.8 hPa | 0 mm | - | - | - |
| 1777613589 | 15° C | 71% | 1016.7 hPa | 0 mm | - | - | - |
| 1777613051 | 15.56° C | 70% | 1016.7 hPa | 0 mm | - | - | - |
| 1777612689 | 15.56° C | 68% | 1016.7 hPa | 0 mm | - | - | - |
| 1777612150 | 15.56° C | 67% | 1016.8 hPa | 0 mm | - | - | - |
| 1777611789 | 15.56° C | 67% | 1016.7 hPa | 0 mm | - | - | - |
| 1777611250 | 16.11° C | 66% | 1016.7 hPa | 0 mm | - | - | - |
| 1777610889 | 16.11° C | 67% | 1016.8 hPa | 0 mm | - | - | - |
| 1777610350 | 16.11° C | 66% | 1016.7 hPa | 0 mm | - | - | - |
| 1777609989 | 16.11° C | 65% | 1016.7 hPa | 0 mm | - | - | - |
| 1777609450 | 16.11° C | 68% | 1016.6 hPa | 0 mm | - | - | - |
| 1777609089 | 16.11° C | 68% | 1016.6 hPa | 0 mm | - | - | - |
| 1777608550 | 17.22° C | 64% | 1016.5 hPa | 0 mm | - | - | - |
| 1777608189 | 17.78° C | 58% | 1016.4 hPa | 0 mm | - | - | - |
* Rain latest hour (hover to see other rain measurements)
** Current wind speed in m/s (hover to see current wind gust speed)